Terminal Aerodrome Forecast
Issued by NWS

Home | Current Version | Previous Version | Text Only | Print | Product List | Glossary On
Versions: 1 2 3 4 5 6 7 8 9 10 11 12
000
FTUS46 KSGX 280520
TAFPSP
TAF
KPSP 280520Z 2806/0106 07009KT P6SM SCT070 BKN100
     FM282300 34012G22KT P6SM BKN080
     FM010300 33007KT P6SM BKN100=

USA.gov is the U.S. government's official web portal to all federal, state and local government web resources and services.